TimeEDT,TemperatureF,Dew PointF,Humidity,Sea Level PressureIn,VisibilityMPH,Wind Direction,Wind SpeedMPH,Gust SpeedMPH,PrecipitationIn,Events,Conditions,WindDirDegrees,DateUTC
12:52 AM,30.0,8.1,40,30.33,10.0,North,10.4,-,N/A,,Clear,10,2013-03-18 04:52:00
1:52 AM,28.9,7.0,40,30.33,10.0,North,9.2,-,N/A,,Clear,360,2013-03-18 05:52:00
2:52 AM,28.0,7.0,41,30.35,10.0,North,8.1,-,N/A,,Clear,350,2013-03-18 06:52:00
3:52 AM,27.0,7.0,43,30.36,10.0,North,8.1,-,N/A,,Clear,10,2013-03-18 07:52:00
4:52 AM,27.0,8.1,45,30.39,10.0,NE,9.2,-,N/A,,Clear,50,2013-03-18 08:52:00
5:52 AM,26.1,7.0,44,30.41,10.0,NE,9.2,-,N/A,,Clear,40,2013-03-18 09:52:00
6:52 AM,26.1,6.1,43,30.43,10.0,NNE,5.8,-,N/A,,Clear,30,2013-03-18 10:52:00
7:52 AM,26.1,7.0,44,30.43,10.0,NNE,8.1,-,N/A,,Clear,30,2013-03-18 11:52:00
8:52 AM,27.0,3.9,37,30.43,10.0,NE,12.7,-,N/A,,Clear,50,2013-03-18 12:52:00
9:52 AM,28.0,5.0,38,30.44,10.0,ENE,9.2,-,N/A,,Clear,70,2013-03-18 13:52:00
10:52 AM,30.0,8.1,40,30.43,10.0,East,9.2,-,N/A,,Clear,80,2013-03-18 14:52:00
11:52 AM,30.0,9.0,41,30.41,10.0,East,9.2,-,N/A,,Clear,90,2013-03-18 15:52:00
12:52 PM,30.9,12.0,46,30.41,10.0,East,9.2,-,N/A,,Clear,90,2013-03-18 16:52:00
1:52 PM,32.0,14.0,48,30.37,10.0,East,13.8,-,N/A,,Clear,80,2013-03-18 17:52:00
2:52 PM,33.1,15.1,48,30.33,10.0,East,13.8,-,N/A,,Overcast,80,2013-03-18 18:52:00
3:52 PM,33.1,17.1,52,30.29,10.0,East,15.0,-,N/A,,Overcast,90,2013-03-18 19:52:00
4:52 PM,33.1,18.0,54,30.29,10.0,East,15.0,-,N/A,,Overcast,100,2013-03-18 20:52:00
5:52 PM,34.0,21.0,59,30.25,10.0,East,17.3,-,N/A,,Overcast,80,2013-03-18 21:52:00
6:52 PM,35.1,21.9,59,30.24,10.0,East,20.7,-,N/A,,Overcast,100,2013-03-18 22:52:00
7:24 PM,33.8,21.2,60,30.22,2.5,ESE,21.9,34.5,0.00,Snow,Light Snow,110,2013-03-18 23:24:00
7:37 PM,33.8,23.0,65,30.22,2.5,ESE,24.2,28.8,0.00,Snow,Light Snow,110,2013-03-18 23:37:00
7:52 PM,33.1,24.1,70,30.22,3.0,ESE,21.9,29.9,0.00,Snow,Light Snow,110,2013-03-18 23:52:00
7:58 PM,33.8,24.8,70,30.22,1.8,East,21.9,31.1,0.00,Snow,Light Snow,100,2013-03-18 23:58:00
8:06 PM,32.0,24.8,75,30.21,0.8,East,21.9,32.2,0.00,Snow,Light Snow,100,2013-03-19 00:06:00
8:24 PM,32.0,28.4,87,30.20,0.8,East,24.2,-,0.01,Snow,Light Snow,100,2013-03-19 00:24:00
8:48 PM,32.0,28.4,87,30.20,1.0,East,20.7,27.6,0.02,Snow,Light Snow,90,2013-03-19 00:48:00
8:52 PM,32.0,28.0,85,30.20,1.0,East,23.0,-,0.03,Snow,Light Snow,90,2013-03-19 00:52:00
8:59 PM,32.0,28.4,87,30.19,0.8,East,21.9,27.6,0.00,Snow,Light Snow,90,2013-03-19 00:59:00
9:06 PM,32.0,28.4,87,30.18,1.0,East,18.4,-,0.00,Snow,Light Snow,80,2013-03-19 01:06:00
9:52 PM,33.1,30.9,92,30.15,1.0,East,23.0,29.9,0.03,Snow,Light Snow,90,2013-03-19 01:52:00
10:39 PM,33.8,30.2,87,30.13,0.8,East,24.2,32.2,0.03,Snow,Light Snow,80,2013-03-19 02:39:00
10:52 PM,33.1,30.9,92,30.12,0.8,East,24.2,31.1,0.04,Snow,Light Snow,80,2013-03-19 02:52:00
10:59 PM,33.8,30.2,87,30.12,1.0,East,25.3,-,0.01,Snow,Light Snow,80,2013-03-19 02:59:00
11:20 PM,33.8,32.0,93,30.11,2.0,East,25.3,33.4,0.03,Snow,Light Snow,80,2013-03-19 03:20:00
11:42 PM,33.8,30.2,87,30.10,3.0,East,25.3,33.4,N/A,Snow,Light Snow,80,2013-03-19 03:42:00
11:52 PM,33.1,30.9,92,30.09,4.0,East,23.0,31.1,0.06,Snow,Light Snow,80,2013-03-19 03:52:00